sensor_id;sensor_type;location;lat;lon;timestamp;pressure;altitude;pressure_sealevel;temperature;humidity
37792;BME280;29527;55.766;37.570;2023-03-03T00:00:40;98392.16;;;0.90;65.18
37792;BME280;29527;55.766;37.570;2023-03-03T00:03:07;98416.94;;;1.15;65.03
37792;BME280;29527;55.766;37.570;2023-03-03T00:05:34;98427.13;;;1.21;65.28
37792;BME280;29527;55.766;37.570;2023-03-03T00:08:00;98420.03;;;1.22;65.43
37792;BME280;29527;55.766;37.570;2023-03-03T00:10:26;98411.19;;;1.23;65.35
37792;BME280;29527;55.766;37.570;2023-03-03T00:12:51;98369.16;;;1.07;65.49
37792;BME280;29527;55.766;37.570;2023-03-03T00:15:22;98413.31;;;1.31;64.95
37792;BME280;29527;55.766;37.570;2023-03-03T00:17:49;98411.44;;;1.33;65.40
37792;BME280;29527;55.766;37.570;2023-03-03T00:20:34;98406.28;;;1.44;65.50
37792;BME280;29527;55.766;37.570;2023-03-03T00:23:19;98400.44;;;1.66;64.76
37792;BME280;29527;55.766;37.570;2023-03-03T00:25:45;98399.56;;;1.53;65.07
37792;BME280;29527;55.766;37.570;2023-03-03T00:30:55;98377.19;;;1.46;65.04
37792;BME280;29527;55.766;37.570;2023-03-03T00:33:25;98380.47;;;1.49;65.49
37792;BME280;29527;55.766;37.570;2023-03-03T00:35:56;98379.81;;;1.46;65.12
37792;BME280;29527;55.766;37.570;2023-03-03T00:38:22;98374.75;;;1.42;65.50
37792;BME280;29527;55.766;37.570;2023-03-03T00:40:48;98365.59;;;1.48;65.60
37792;BME280;29527;55.766;37.570;2023-03-03T00:48:18;98362.00;;;1.49;66.08
37792;BME280;29527;55.766;37.570;2023-03-03T00:50:45;98356.16;;;1.44;66.03
37792;BME280;29527;55.766;37.570;2023-03-03T00:53:13;98356.16;;;1.44;66.29
37792;BME280;29527;55.766;37.570;2023-03-03T00:55:41;98348.25;;;1.44;66.60
37792;BME280;29527;55.766;37.570;2023-03-03T00:58:07;98354.38;;;1.45;66.36
37792;BME280;29527;55.766;37.570;2023-03-03T01:00:33;98355.34;;;1.43;67.06
37792;BME280;29527;55.766;37.570;2023-03-03T01:03:04;98345.09;;;1.52;67.02
37792;BME280;29527;55.766;37.570;2023-03-03T01:05:31;98323.38;;;1.35;66.56
37792;BME280;29527;55.766;37.570;2023-03-03T01:07:56;98336.91;;;1.56;66.52
37792;BME280;29527;55.766;37.570;2023-03-03T01:10:22;98307.00;;;1.43;66.04
37792;BME280;29527;55.766;37.570;2023-03-03T01:12:47;98325.47;;;1.56;66.46
37792;BME280;29527;55.766;37.570;2023-03-03T01:15:14;98328.78;;;1.60;66.04
37792;BME280;29527;55.766;37.570;2023-03-03T01:17:41;98332.78;;;1.65;65.93
37792;BME280;29527;55.766;37.570;2023-03-03T01:20:08;98330.03;;;1.67;66.39
37792;BME280;29527;55.766;37.570;2023-03-03T01:22:34;98327.41;;;1.67;66.26
37792;BME280;29527;55.766;37.570;2023-03-03T01:25:00;98329.09;;;1.68;66.45
37792;BME280;29527;55.766;37.570;2023-03-03T01:27:29;98303.03;;;1.50;66.60
37792;BME280;29527;55.766;37.570;2023-03-03T01:29:55;98327.22;;;1.70;66.57
37792;BME280;29527;55.766;37.570;2023-03-03T01:32:22;98328.03;;;1.70;66.54
37792;BME280;29527;55.766;37.570;2023-03-03T01:34:47;98326.25;;;1.71;67.01
37792;BME280;29527;55.766;37.570;2023-03-03T01:37:13;98328.91;;;1.71;67.12
37792;BME280;29527;55.766;37.570;2023-03-03T01:39:38;98333.00;;;1.75;66.78
37792;BME280;29527;55.766;37.570;2023-03-03T01:42:04;98323.63;;;1.71;67.03
37792;BME280;29527;55.766;37.570;2023-03-03T01:44:29;98321.81;;;1.71;67.42
37792;BME280;29527;55.766;37.570;2023-03-03T01:47:04;98313.91;;;1.71;66.96
37792;BME280;29527;55.766;37.570;2023-03-03T01:49:40;98327.75;;;1.75;66.95
37792;BME280;29527;55.766;37.570;2023-03-03T01:52:12;98320.13;;;1.70;67.04
37792;BME280;29527;55.766;37.570;2023-03-03T01:54:46;98301.66;;;1.57;67.53
37792;BME280;29527;55.766;37.570;2023-03-03T01:57:27;98314.97;;;1.69;67.62
37792;BME280;29527;55.766;37.570;2023-03-03T01:59:55;98316.66;;;1.70;67.82
37792;BME280;29527;55.766;37.570;2023-03-03T02:02:22;98278.34;;;1.51;67.68
37792;BME280;29527;55.766;37.570;2023-03-03T02:04:49;98314.53;;;1.75;66.98
37792;BME280;29527;55.766;37.570;2023-03-03T02:07:15;98305.25;;;1.69;66.99
37792;BME280;29527;55.766;37.570;2023-03-03T02:09:48;98306.84;;;1.72;67.37
37792;BME280;29527;55.766;37.570;2023-03-03T02:12:18;98309.34;;;1.74;67.28
37792;BME280;29527;55.766;37.570;2023-03-03T02:14:44;98295.34;;;1.73;66.96
37792;BME280;29527;55.766;37.570;2023-03-03T02:17:09;98303.25;;;1.73;67.03
37792;BME280;29527;55.766;37.570;2023-03-03T02:22:30;98279.81;;;1.81;66.88
37792;BME280;29527;55.766;37.570;2023-03-03T02:25:00;98278.22;;;1.79;66.46
37792;BME280;29527;55.766;37.570;2023-03-03T02:27:28;98240.25;;;1.55;66.78
37792;BME280;29527;55.766;37.570;2023-03-03T02:29:55;98268.94;;;1.73;66.80
37792;BME280;29527;55.766;37.570;2023-03-03T02:32:21;98269.91;;;1.72;66.77
37792;BME280;29527;55.766;37.570;2023-03-03T02:34:49;98263.75;;;1.71;66.84
37792;BME280;29527;55.766;37.570;2023-03-03T02:37:14;98239.19;;;1.58;67.21
37792;BME280;29527;55.766;37.570;2023-03-03T02:39:41;98239.19;;;1.58;66.32
37792;BME280;29527;55.766;37.570;2023-03-03T02:44:41;98254.06;;;1.72;66.93
37792;BME280;29527;55.766;37.570;2023-03-03T02:47:06;98258.63;;;1.70;67.04
37792;BME280;29527;55.766;37.570;2023-03-03T02:49:34;98243.41;;;1.61;67.40
37792;BME280;29527;55.766;37.570;2023-03-03T02:52:03;98256.28;;;1.65;67.43
37792;BME280;29527;55.766;37.570;2023-03-03T02:54:30;98260.38;;;1.69;67.71
37792;BME280;29527;55.766;37.570;2023-03-03T02:56:56;98249.09;;;1.67;67.87
37792;BME280;29527;55.766;37.570;2023-03-03T02:59:22;98246.16;;;1.72;67.32
37792;BME280;29527;55.766;37.570;2023-03-03T03:01:48;98244.66;;;1.68;67.75
37792;BME280;29527;55.766;37.570;2023-03-03T03:04:18;98245.19;;;1.73;67.78
37792;BME280;29527;55.766;37.570;2023-03-03T03:06:45;98245.28;;;1.71;67.90
37792;BME280;29527;55.766;37.570;2023-03-03T03:09:12;98246.88;;;1.74;67.33
37792;BME280;29527;55.766;37.570;2023-03-03T03:11:38;98216.59;;;1.54;67.29
37792;BME280;29527;55.766;37.570;2023-03-03T03:14:05;98245.28;;;1.71;67.85
37792;BME280;29527;55.766;37.570;2023-03-03T03:16:31;98243.72;;;1.69;68.08
37792;BME280;29527;55.766;37.570;2023-03-03T03:18:59;98234.44;;;1.63;68.52
37792;BME280;29527;55.766;37.570;2023-03-03T03:21:25;98242.22;;;1.65;68.89
37792;BME280;29527;55.766;37.570;2023-03-03T03:23:50;98236.44;;;1.60;69.05
37792;BME280;29527;55.766;37.570;2023-03-03T03:26:16;98235.06;;;1.54;69.27
37792;BME280;29527;55.766;37.570;2023-03-03T03:28:41;98240.47;;;1.52;69.41
37792;BME280;29527;55.766;37.570;2023-03-03T03:31:08;98239.50;;;1.53;69.32
37792;BME280;29527;55.766;37.570;2023-03-03T03:33:34;98240.47;;;1.52;69.63
37792;BME280;29527;55.766;37.570;2023-03-03T03:35:59;98232.53;;;1.52;69.88
37792;BME280;29527;55.766;37.570;2023-03-03T03:38:26;98229.69;;;1.55;70.17
37792;BME280;29527;55.766;37.570;2023-03-03T03:40:52;98222.72;;;1.54;70.10
37792;BME280;29527;55.766;37.570;2023-03-03T03:43:18;98229.38;;;1.60;69.66
37792;BME280;29527;55.766;37.570;2023-03-03T03:45:44;98233.81;;;1.60;69.62
37792;BME280;29527;55.766;37.570;2023-03-03T03:48:10;98228.75;;;1.56;69.89
37792;BME280;29527;55.766;37.570;2023-03-03T03:50:35;98227.78;;;1.57;69.82
37792;BME280;29527;55.766;37.570;2023-03-03T03:53:01;98222.94;;;1.51;69.82
37792;BME280;29527;55.766;37.570;2023-03-03T03:55:26;98219.03;;;1.57;69.94
37792;BME280;29527;55.766;37.570;2023-03-03T03:57:53;98229.47;;;1.58;69.99
37792;BME280;29527;55.766;37.570;2023-03-03T04:00:19;98222.50;;;1.57;69.64
37792;BME280;29527;55.766;37.570;2023-03-03T04:02:45;98216.41;;;1.57;69.80
37792;BME280;29527;55.766;37.570;2023-03-03T04:05:10;98214.38;;;1.61;69.56
37792;BME280;29527;55.766;37.570;2023-03-03T04:07:36;98208.16;;;1.62;69.45
37792;BME280;29527;55.766;37.570;2023-03-03T04:10:02;98214.16;;;1.64;69.42
37792;BME280;29527;55.766;37.570;2023-03-03T04:12:29;98214.28;;;1.62;69.76
37792;BME280;29527;55.766;37.570;2023-03-03T04:15:00;98201.41;;;1.57;69.75
37792;BME280;29527;55.766;37.570;2023-03-03T04:17:25;98175.25;;;1.41;69.83
37792;BME280;29527;55.766;37.570;2023-03-03T04:19:53;98211.75;;;1.61;69.86
37792;BME280;29527;55.766;37.570;2023-03-03T04:22:19;98209.41;;;1.56;69.69
37792;BME280;29527;55.766;37.570;2023-03-03T04:24:45;98187.28;;;1.46;69.47
37792;BME280;29527;55.766;37.570;2023-03-03T04:27:13;98215.56;;;1.56;69.84
37792;BME280;29527;55.766;37.570;2023-03-03T04:29:40;98203.31;;;1.55;69.92
37792;BME280;29527;55.766;37.570;2023-03-03T04:32:05;98192.25;;;1.50;69.83
37792;BME280;29527;55.766;37.570;2023-03-03T04:34:31;98198.78;;;1.57;69.89
37792;BME280;29527;55.766;37.570;2023-03-03T04:36:57;98208.38;;;1.58;69.89
37792;BME280;29527;55.766;37.570;2023-03-03T04:39:22;98191.59;;;1.60;69.75
37792;BME280;29527;55.766;37.570;2023-03-03T04:41:47;98196.66;;;1.63;69.74
37792;BME280;29527;55.766;37.570;2023-03-03T04:44:13;98202.25;;;1.71;69.57
37792;BME280;29527;55.766;37.570;2023-03-03T04:46:38;98196.13;;;1.70;69.59
37792;BME280;29527;55.766;37.570;2023-03-03T04:49:04;98193.16;;;1.75;69.38
37792;BME280;29527;55.766;37.570;2023-03-03T04:51:32;98200.34;;;1.73;69.73
37792;BME280;29527;55.766;37.570;2023-03-03T04:53:57;98190.84;;;1.70;69.21
37792;BME280;29527;55.766;37.570;2023-03-03T04:56:23;98198.44;;;1.75;69.42
37792;BME280;29527;55.766;37.570;2023-03-03T04:58:48;98208.03;;;1.76;69.48
37792;BME280;29527;55.766;37.570;2023-03-03T05:01:14;98202.75;;;1.76;69.22
37792;BME280;29527;55.766;37.570;2023-03-03T05:03:39;98207.38;;;1.85;69.35
37792;BME280;29527;55.766;37.570;2023-03-03T05:06:06;98209.81;;;1.89;69.42
37792;BME280;29527;55.766;37.570;2023-03-03T05:08:31;98208.13;;;1.88;68.83
37792;BME280;29527;55.766;37.570;2023-03-03T05:10:57;98198.19;;;1.91;68.87
37792;BME280;29527;55.766;37.570;2023-03-03T05:13:24;98207.69;;;1.94;68.54
37792;BME280;29527;55.766;37.570;2023-03-03T05:15:52;98206.84;;;1.93;69.09
37792;BME280;29527;55.766;37.570;2023-03-03T05:18:23;98207.25;;;2.00;68.99
37792;BME280;29527;55.766;37.570;2023-03-03T05:20:50;98216.84;;;2.01;68.57
37792;BME280;29527;55.766;37.570;2023-03-03T05:23:17;98210.72;;;2.00;67.90
37792;BME280;29527;55.766;37.570;2023-03-03T05:25:43;98211.25;;;1.93;68.00
37792;BME280;29527;55.766;37.570;2023-03-03T05:28:09;98217.31;;;1.95;68.21
37792;BME280;29527;55.766;37.570;2023-03-03T05:30:36;98176.97;;;1.80;67.71
37792;BME280;29527;55.766;37.570;2023-03-03T05:33:02;98219.94;;;1.95;68.11
37792;BME280;29527;55.766;37.570;2023-03-03T05:35:28;98217.81;;;2.00;66.98
37792;BME280;29527;55.766;37.570;2023-03-03T05:37:54;98220.53;;;1.98;67.60
37792;BME280;29527;55.766;37.570;2023-03-03T05:40:20;98205.66;;;1.97;67.02
37792;BME280;29527;55.766;37.570;2023-03-03T05:42:45;98211.13;;;2.07;67.00
37792;BME280;29527;55.766;37.570;2023-03-03T05:45:11;98206.13;;;2.15;67.26
37792;BME280;29527;55.766;37.570;2023-03-03T05:47:37;98209.31;;;2.21;66.92
37792;BME280;29527;55.766;37.570;2023-03-03T05:50:04;98215.09;;;2.26;66.54
37792;BME280;29527;55.766;37.570;2023-03-03T05:52:30;98180.81;;;2.13;66.37
37792;BME280;29527;55.766;37.570;2023-03-03T05:54:56;98207.22;;;2.37;66.29
37792;BME280;29527;55.766;37.570;2023-03-03T05:57:21;98213.03;;;2.42;65.86
37792;BME280;29527;55.766;37.570;2023-03-03T05:59:47;98205.94;;;2.43;65.96
37792;BME280;29527;55.766;37.570;2023-03-03T06:02:13;98202.56;;;2.41;65.46
37792;BME280;29527;55.766;37.570;2023-03-03T06:04:38;98210.41;;;2.42;65.25
37792;BME280;29527;55.766;37.570;2023-03-03T06:07:04;98216.00;;;2.38;64.62
37792;BME280;29527;55.766;37.570;2023-03-03T06:09:31;98221.63;;;2.33;65.15
37792;BME280;29527;55.766;37.570;2023-03-03T06:11:56;98158.66;;;2.03;65.21
37792;BME280;29527;55.766;37.570;2023-03-03T06:14:22;98217.06;;;2.35;65.21
37792;BME280;29527;55.766;37.570;2023-03-03T06:16:48;98215.38;;;2.34;64.94
37792;BME280;29527;55.766;37.570;2023-03-03T06:19:13;98220.00;;;2.43;64.62
37792;BME280;29527;55.766;37.570;2023-03-03T06:21:40;98221.16;;;2.39;65.00
37792;BME280;29527;55.766;37.570;2023-03-03T06:24:06;98222.41;;;2.47;65.38
37792;BME280;29527;55.766;37.570;2023-03-03T06:26:32;98193.28;;;2.35;65.35
37792;BME280;29527;55.766;37.570;2023-03-03T06:28:57;98224.16;;;2.59;65.26
37792;BME280;29527;55.766;37.570;2023-03-03T06:31:23;98215.72;;;2.54;64.54
37792;BME280;29527;55.766;37.570;2023-03-03T06:33:49;98225.59;;;2.63;64.60
37792;BME280;29527;55.766;37.570;2023-03-03T06:36:16;98187.63;;;2.53;64.42
37792;BME280;29527;55.766;37.570;2023-03-03T06:38:42;98223.19;;;2.84;63.44
37792;BME280;29527;55.766;37.570;2023-03-03T06:41:08;98221.66;;;2.93;63.26
37792;BME280;29527;55.766;37.570;2023-03-03T06:43:35;98186.03;;;2.75;62.85
37792;BME280;29527;55.766;37.570;2023-03-03T06:46:01;98225.69;;;2.86;63.21
37792;BME280;29527;55.766;37.570;2023-03-03T06:48:27;98195.94;;;2.60;62.66
37792;BME280;29527;55.766;37.570;2023-03-03T06:50:53;98185.53;;;2.45;63.39
37792;BME280;29527;55.766;37.570;2023-03-03T06:53:18;98226.22;;;2.67;64.04
37792;BME280;29527;55.766;37.570;2023-03-03T06:55:44;98215.78;;;2.65;63.73
37792;BME280;29527;55.766;37.570;2023-03-03T06:58:18;98227.84;;;2.81;64.11
37792;BME280;29527;55.766;37.570;2023-03-03T07:00:56;98231.50;;;2.91;63.26
37792;BME280;29527;55.766;37.570;2023-03-03T07:03:23;98233.19;;;2.92;62.65
37792;BME280;29527;55.766;37.570;2023-03-03T07:05:49;98218.50;;;2.88;62.02
37792;BME280;29527;55.766;37.570;2023-03-03T07:08:21;98227.44;;;2.98;62.19
37792;BME280;29527;55.766;37.570;2023-03-03T07:10:49;98239.63;;;2.88;62.27
37792;BME280;29527;55.766;37.570;2023-03-03T07:13:22;98235.78;;;2.81;62.54
37792;BME280;29527;55.766;37.570;2023-03-03T07:15:49;98235.78;;;2.81;62.76
37792;BME280;29527;55.766;37.570;2023-03-03T07:18:36;98233.41;;;2.89;62.42
37792;BME280;29527;55.766;37.570;2023-03-03T07:21:30;98241.63;;;2.97;62.41
37792;BME280;29527;55.766;37.570;2023-03-03T07:23:57;98244.34;;;2.84;62.28
37792;BME280;29527;55.766;37.570;2023-03-03T07:26:29;98209.75;;;2.63;61.70
37792;BME280;29527;55.766;37.570;2023-03-03T07:29:13;98233.38;;;2.78;61.99
37792;BME280;29527;55.766;37.570;2023-03-03T07:31:45;98231.44;;;2.80;61.98
37792;BME280;29527;55.766;37.570;2023-03-03T07:34:39;98236.28;;;2.86;62.03
37792;BME280;29527;55.766;37.570;2023-03-03T07:37:50;98242.25;;;3.12;61.92
37792;BME280;29527;55.766;37.570;2023-03-03T07:39:57;98246.41;;;2.92;61.00
37792;BME280;29527;55.766;37.570;2023-03-03T07:45:20;98208.13;;;2.73;61.71
37792;BME280;29527;55.766;37.570;2023-03-03T07:47:47;98216.78;;;2.76;60.83
37792;BME280;29527;55.766;37.570;2023-03-03T07:50:17;98248.53;;;2.87;61.11
37792;BME280;29527;55.766;37.570;2023-03-03T07:53:11;98247.72;;;2.98;61.10
37792;BME280;29527;55.766;37.570;2023-03-03T07:55:39;98219.59;;;2.85;60.64
37792;BME280;29527;55.766;37.570;2023-03-03T08:03:24;98238.13;;;3.55;58.94
37792;BME280;29527;55.766;37.570;2023-03-03T08:05:50;98239.59;;;3.71;58.69
37792;BME280;29527;55.766;37.570;2023-03-03T08:08:32;98245.38;;;3.99;58.90
37792;BME280;29527;55.766;37.570;2023-03-03T08:11:01;98236.19;;;4.26;56.94
37792;BME280;29527;55.766;37.570;2023-03-03T08:16:19;98232.28;;;4.85;56.27
37792;BME280;29527;55.766;37.570;2023-03-03T08:18:48;98248.03;;;4.98;56.24
37792;BME280;29527;55.766;37.570;2023-03-03T08:21:24;98248.75;;;5.00;56.51
37792;BME280;29527;55.766;37.570;2023-03-03T08:23:50;98253.06;;;5.01;55.80
37792;BME280;29527;55.766;37.570;2023-03-03T08:26:21;98251.91;;;4.94;55.61
37792;BME280;29527;55.766;37.570;2023-03-03T08:28:47;98248.56;;;4.81;56.41
37792;BME280;29527;55.766;37.570;2023-03-03T08:31:13;98255.00;;;4.67;56.27
37792;BME280;29527;55.766;37.570;2023-03-03T08:33:39;98260.72;;;4.51;55.87
37792;BME280;29527;55.766;37.570;2023-03-03T08:36:06;98263.75;;;4.35;56.18
37792;BME280;29527;55.766;37.570;2023-03-03T08:38:31;98253.06;;;4.25;57.18
37792;BME280;29527;55.766;37.570;2023-03-03T08:40:57;98250.53;;;4.23;56.45
37792;BME280;29527;55.766;37.570;2023-03-03T08:43:23;98253.91;;;4.14;57.06
37792;BME280;29527;55.766;37.570;2023-03-03T08:45:51;98263.19;;;4.08;56.82
37792;BME280;29527;55.766;37.570;2023-03-03T08:48:18;98263.56;;;4.04;57.39
37792;BME280;29527;55.766;37.570;2023-03-03T08:50:44;98267.03;;;4.04;57.46
37792;BME280;29527;55.766;37.570;2023-03-03T08:53:11;98261.16;;;4.00;57.75
37792;BME280;29527;55.766;37.570;2023-03-03T08:55:37;98262.47;;;4.18;57.49
37792;BME280;29527;55.766;37.570;2023-03-03T08:58:03;98264.09;;;4.53;56.96
37792;BME280;29527;55.766;37.570;2023-03-03T09:00:29;98265.28;;;4.93;55.59
37792;BME280;29527;55.766;37.570;2023-03-03T09:02:54;98263.19;;;5.29;55.00
37792;BME280;29527;55.766;37.570;2023-03-03T09:05:20;98269.41;;;5.60;54.35
37792;BME280;29527;55.766;37.570;2023-03-03T09:07:46;98270.44;;;5.69;53.38
37792;BME280;29527;55.766;37.570;2023-03-03T09:10:15;98270.69;;;5.87;53.16
37792;BME280;29527;55.766;37.570;2023-03-03T09:12:43;98261.78;;;5.98;53.24
37792;BME280;29527;55.766;37.570;2023-03-03T09:15:25;98241.59;;;5.86;53.15
37792;BME280;29527;55.766;37.570;2023-03-03T09:17:53;98249.69;;;5.84;53.87
37792;BME280;29527;55.766;37.570;2023-03-03T09:20:37;98264.25;;;6.11;54.55
37792;BME280;29527;55.766;37.570;2023-03-03T09:25:54;98272.63;;;6.67;52.37
37792;BME280;29527;55.766;37.570;2023-03-03T09:28:29;98252.94;;;6.99;51.80
37792;BME280;29527;55.766;37.570;2023-03-03T09:31:00;98270.72;;;7.18;51.33
37792;BME280;29527;55.766;37.570;2023-03-03T09:33:40;98265.41;;;7.28;51.72
37792;BME280;29527;55.766;37.570;2023-03-03T09:36:26;98270.72;;;7.28;51.46
37792;BME280;29527;55.766;37.570;2023-03-03T09:38:53;98266.22;;;7.09;51.39
37792;BME280;29527;55.766;37.570;2023-03-03T09:49:13;98277.59;;;6.31;53.46
37792;BME280;29527;55.766;37.570;2023-03-03T09:57:04;98267.47;;;5.94;54.47
37792;BME280;29527;55.766;37.570;2023-03-03T10:04:58;98271.19;;;5.17;56.18
37792;BME280;29527;55.766;37.570;2023-03-03T10:07:41;98265.78;;;4.86;56.90
37792;BME280;29527;55.766;37.570;2023-03-03T10:10:16;98258.28;;;4.92;56.82
37792;BME280;29527;55.766;37.570;2023-03-03T10:21:43;98261.53;;;6.01;53.95
37792;BME280;29527;55.766;37.570;2023-03-03T10:24:27;98259.72;;;6.02;52.56
37792;BME280;29527;55.766;37.570;2023-03-03T10:27:23;98265.75;;;6.04;52.84
37792;BME280;29527;55.766;37.570;2023-03-03T10:30:02;98265.75;;;5.83;52.57
37792;BME280;29527;55.766;37.570;2023-03-03T10:32:55;98258.53;;;5.64;53.37
37792;BME280;29527;55.766;37.570;2023-03-03T10:49:26;98259.69;;;6.33;50.61
37792;BME280;29527;55.766;37.570;2023-03-03T10:58:16;98262.44;;;5.91;51.66
37792;BME280;29527;55.766;37.570;2023-03-03T11:06:32;98271.72;;;6.27;51.22
37792;BME280;29527;55.766;37.570;2023-03-03T11:12:03;98269.66;;;6.41;49.59
37792;BME280;29527;55.766;37.570;2023-03-03T11:14:48;98271.63;;;6.49;49.64
37792;BME280;29527;55.766;37.570;2023-03-03T11:17:26;98272.25;;;6.21;49.90
37792;BME280;29527;55.766;37.570;2023-03-03T11:20:15;98271.63;;;6.08;50.62
37792;BME280;29527;55.766;37.570;2023-03-03T11:25:48;98272.31;;;5.79;51.60
37792;BME280;29527;55.766;37.570;2023-03-03T11:37:12;98281.84;;;5.39;52.57
37792;BME280;29527;55.766;37.570;2023-03-03T11:39:42;98278.06;;;5.20;52.99
37792;BME280;29527;55.766;37.570;2023-03-03T11:45:18;98261.06;;;5.23;53.43
37792;BME280;29527;55.766;37.570;2023-03-03T11:50:59;98263.78;;;5.54;52.55
37792;BME280;29527;55.766;37.570;2023-03-03T12:01:52;98280.38;;;5.67;50.50
37792;BME280;29527;55.766;37.570;2023-03-03T12:04:26;98255.03;;;5.63;50.41
37792;BME280;29527;55.766;37.570;2023-03-03T12:15:05;98277.78;;;6.49;49.53
37792;BME280;29527;55.766;37.570;2023-03-03T12:17:58;98276.38;;;6.45;48.71
37792;BME280;29527;55.766;37.570;2023-03-03T12:26:13;98275.97;;;6.59;48.22
37792;BME280;29527;55.766;37.570;2023-03-03T12:31:28;98273.31;;;6.59;48.43
37792;BME280;29527;55.766;37.570;2023-03-03T12:34:05;98278.19;;;6.44;47.79
37792;BME280;29527;55.766;37.570;2023-03-03T12:39:48;98285.44;;;6.01;49.07
37792;BME280;29527;55.766;37.570;2023-03-03T12:50:36;98296.44;;;4.79;52.89
37792;BME280;29527;55.766;37.570;2023-03-03T12:56:03;98287.06;;;4.64;53.20
37792;BME280;29527;55.766;37.570;2023-03-03T13:01:21;98298.81;;;4.38;53.73
37792;BME280;29527;55.766;37.570;2023-03-03T13:04:22;98296.28;;;4.37;53.97
37792;BME280;29527;55.766;37.570;2023-03-03T13:07:07;98295.34;;;4.26;54.52
37792;BME280;29527;55.766;37.570;2023-03-03T13:12:37;98300.03;;;4.23;54.07
37792;BME280;29527;55.766;37.570;2023-03-03T13:15:11;98293.53;;;4.15;55.06
37792;BME280;29527;55.766;37.570;2023-03-03T13:23:46;98290.63;;;4.07;55.54
37792;BME280;29527;55.766;37.570;2023-03-03T13:29:18;98291.00;;;4.02;55.93
37792;BME280;29527;55.766;37.570;2023-03-03T13:31:55;98276.06;;;4.01;56.02
37792;BME280;29527;55.766;37.570;2023-03-03T13:37:04;98284.00;;;4.13;55.79
37792;BME280;29527;55.766;37.570;2023-03-03T13:39:37;98273.66;;;4.10;55.30
37792;BME280;29527;55.766;37.570;2023-03-03T13:44:42;98283.16;;;4.24;54.85
37792;BME280;29527;55.766;37.570;2023-03-03T13:47:20;98282.19;;;4.36;54.76
37792;BME280;29527;55.766;37.570;2023-03-03T13:59:20;98274.81;;;4.40;54.34
37792;BME280;29527;55.766;37.570;2023-03-03T14:05:11;98284.63;;;3.94;55.04
37792;BME280;29527;55.766;37.570;2023-03-03T14:07:56;98284.34;;;3.74;55.86
37792;BME280;29527;55.766;37.570;2023-03-03T14:10:23;98281.25;;;3.92;55.13
37792;BME280;29527;55.766;37.570;2023-03-03T14:13:11;98293.97;;;3.75;54.70
37792;BME280;29527;55.766;37.570;2023-03-03T14:16:00;98291.81;;;3.69;55.80
37792;BME280;29527;55.766;37.570;2023-03-03T14:18:38;98283.03;;;3.68;54.79
37792;BME280;29527;55.766;37.570;2023-03-03T14:21:15;98252.56;;;3.51;54.64
37792;BME280;29527;55.766;37.570;2023-03-03T14:26:51;98286.16;;;3.62;54.32
37792;BME280;29527;55.766;37.570;2023-03-03T14:29:22;98286.00;;;3.52;54.80
37792;BME280;29527;55.766;37.570;2023-03-03T14:31:54;98276.84;;;3.45;55.09
37792;BME280;29527;55.766;37.570;2023-03-03T14:36:50;98281.66;;;3.40;54.98
37792;BME280;29527;55.766;37.570;2023-03-03T14:39:38;98286.47;;;3.46;54.94
37792;BME280;29527;55.766;37.570;2023-03-03T14:42:11;98287.03;;;3.27;55.26
37792;BME280;29527;55.766;37.570;2023-03-03T14:49:37;98281.03;;;3.00;55.07
37792;BME280;29527;55.766;37.570;2023-03-03T14:54:54;98294.03;;;3.04;54.75
37792;BME280;29527;55.766;37.570;2023-03-03T15:02:43;98250.97;;;2.66;54.81
37792;BME280;29527;55.766;37.570;2023-03-03T15:05:23;98300.13;;;2.93;54.93
37792;BME280;29527;55.766;37.570;2023-03-03T15:07:52;98296.84;;;2.89;55.09
37792;BME280;29527;55.766;37.570;2023-03-03T15:16:01;98303.84;;;2.90;54.82
37792;BME280;29527;55.766;37.570;2023-03-03T15:18:28;98303.53;;;2.82;54.67
37792;BME280;29527;55.766;37.570;2023-03-03T15:23:39;98306.69;;;2.87;55.27
37792;BME280;29527;55.766;37.570;2023-03-03T15:39:50;98319.06;;;2.86;55.00
37792;BME280;29527;55.766;37.570;2023-03-03T15:42:24;98314.97;;;2.82;55.13
37792;BME280;29527;55.766;37.570;2023-03-03T15:45:02;98316.66;;;2.83;56.06
37792;BME280;29527;55.766;37.570;2023-03-03T15:50:31;98315.81;;;2.83;55.34
37792;BME280;29527;55.766;37.570;2023-03-03T16:02:19;98319.72;;;2.90;54.77
37792;BME280;29527;55.766;37.570;2023-03-03T16:04:23;98310.28;;;2.86;54.81
37792;BME280;29527;55.766;37.570;2023-03-03T16:20:21;98317.84;;;2.79;55.35
37792;BME280;29527;55.766;37.570;2023-03-03T16:36:28;98312.03;;;2.74;54.76
37792;BME280;29527;55.766;37.570;2023-03-03T16:39:01;98310.47;;;2.71;54.36
37792;BME280;29527;55.766;37.570;2023-03-03T16:41:57;98315.63;;;2.73;54.79
37792;BME280;29527;55.766;37.570;2023-03-03T16:44:36;98308.16;;;2.67;54.78
37792;BME280;29527;55.766;37.570;2023-03-03T16:47:15;98306.56;;;2.64;54.95
37792;BME280;29527;55.766;37.570;2023-03-03T16:52:43;98324.13;;;2.65;54.20
37792;BME280;29527;55.766;37.570;2023-03-03T17:01:24;98316.84;;;2.56;54.76
37792;BME280;29527;55.766;37.570;2023-03-03T17:03:59;98315.47;;;2.50;54.55
37792;BME280;29527;55.766;37.570;2023-03-03T17:06:57;98316.13;;;2.54;54.68
37792;BME280;29527;55.766;37.570;2023-03-03T17:12:23;98315.84;;;2.46;54.89
37792;BME280;29527;55.766;37.570;2023-03-03T17:22:51;98319.44;;;2.44;54.93
37792;BME280;29527;55.766;37.570;2023-03-03T17:25:22;98286.84;;;2.20;54.68
37792;BME280;29527;55.766;37.570;2023-03-03T17:28:10;98328.63;;;2.39;55.40
37792;BME280;29527;55.766;37.570;2023-03-03T17:33:35;98288.09;;;2.27;54.96
37792;BME280;29527;55.766;37.570;2023-03-03T17:39:07;98314.25;;;2.43;55.26
37792;BME280;29527;55.766;37.570;2023-03-03T17:44:07;98315.09;;;2.43;55.21
37792;BME280;29527;55.766;37.570;2023-03-03T17:54:27;98321.34;;;2.42;55.05
37792;BME280;29527;55.766;37.570;2023-03-03T18:17:14;98310.28;;;2.11;56.12
37792;BME280;29527;55.766;37.570;2023-03-03T18:22:46;98302.91;;;2.04;56.21
37792;BME280;29527;55.766;37.570;2023-03-03T18:25:13;98307.13;;;1.93;55.81
37792;BME280;29527;55.766;37.570;2023-03-03T18:27:44;98318.75;;;1.91;56.13